createdAt,value
2023-04-15T00:02:14.726Z,5.93
2023-04-15T00:04:41.439Z,6.53
2023-04-15T00:07:08.832Z,7.43
2023-04-15T00:09:35.371Z,8.73
2023-04-15T00:12:02.137Z,6.60
2023-04-15T00:14:28.778Z,7.77
2023-04-15T00:16:57.646Z,7.37
2023-04-15T00:19:25.494Z,7.70
2023-04-15T00:21:52.147Z,7.67
2023-04-15T00:24:20.170Z,8.47
2023-04-15T00:26:47.173Z,8.00
2023-04-15T00:29:14.503Z,7.87
2023-04-15T00:31:42.284Z,9.60
2023-04-15T00:34:08.804Z,7.33
2023-04-15T00:36:35.847Z,6.07
2023-04-15T00:39:03.382Z,7.73
2023-04-15T00:41:29.972Z,8.83
2023-04-15T00:43:56.551Z,8.53
2023-04-15T00:46:23.456Z,6.60
2023-04-15T00:48:51.396Z,8.37
2023-04-15T00:51:18.048Z,8.17
2023-04-15T00:53:44.857Z,7.63
2023-04-15T00:56:11.746Z,6.27
2023-04-15T00:58:38.356Z,8.53
2023-04-15T01:01:05.357Z,5.77
2023-04-15T01:03:32.200Z,5.83
2023-04-15T01:06:02.212Z,7.17
2023-04-15T01:08:31.012Z,5.40
2023-04-15T01:10:59.384Z,6.33
2023-04-15T01:13:26.900Z,7.17
2023-04-15T01:15:53.924Z,7.77
2023-04-15T01:18:21.215Z,8.23
2023-04-15T01:20:47.790Z,7.03
2023-04-15T01:23:14.640Z,6.60
2023-04-15T01:25:42.619Z,8.33
2023-04-15T01:28:10.039Z,7.03
2023-04-15T01:30:36.782Z,7.63
2023-04-15T01:33:03.509Z,7.93
2023-04-15T01:35:30.142Z,7.63
2023-04-15T01:38:05.116Z,7.43
2023-04-15T01:40:31.739Z,7.40
2023-04-15T01:42:58.329Z,6.47
2023-04-15T01:45:24.943Z,8.40
2023-04-15T01:47:51.519Z,7.13
2023-04-15T01:50:18.305Z,7.23
2023-04-15T01:52:44.904Z,8.00
2023-04-15T01:55:11.578Z,8.53
2023-04-15T01:57:38.207Z,9.17
2023-04-15T02:00:05.395Z,12.10
2023-04-15T02:02:32.101Z,8.83
2023-04-15T02:04:59.087Z,9.23
2023-04-15T02:07:26.533Z,10.77
2023-04-15T02:09:53.438Z,9.50
2023-04-15T02:12:20.055Z,10.00
2023-04-15T02:14:47.389Z,10.83
2023-04-15T02:17:13.957Z,11.23
2023-04-15T02:19:41.364Z,10.30
2023-04-15T02:22:09.456Z,9.60
2023-04-15T02:24:36.568Z,11.10
2023-04-15T02:27:03.707Z,10.47
2023-04-15T02:29:32.496Z,11.03
2023-04-15T02:31:59.064Z,10.83
2023-04-15T02:34:27.233Z,10.20
2023-04-15T02:36:57.926Z,13.57
2023-04-15T02:39:24.635Z,13.23
2023-04-15T02:41:54.151Z,11.07
2023-04-15T02:44:21.082Z,11.27
2023-04-15T02:46:52.732Z,14.17
2023-04-15T02:49:19.394Z,12.13
2023-04-15T02:51:49.613Z,13.23
2023-04-15T02:54:17.972Z,15.03
2023-04-15T02:56:44.579Z,15.23
2023-04-15T02:59:13.129Z,13.90
2023-04-15T03:01:39.815Z,15.90
2023-04-15T03:04:08.090Z,14.13
2023-04-15T03:06:35.662Z,15.80
2023-04-15T03:09:02.587Z,14.13
2023-04-15T03:11:30.016Z,15.50
2023-04-15T03:13:56.679Z,16.50
2023-04-15T03:16:23.263Z,15.50
2023-04-15T03:18:49.853Z,16.30
2023-04-15T03:21:16.688Z,16.83
2023-04-15T03:23:43.276Z,17.37
2023-04-15T03:26:09.902Z,19.43
2023-04-15T03:28:36.605Z,20.83
2023-04-15T03:31:03.174Z,25.07
2023-04-15T03:33:29.751Z,20.70
2023-04-15T03:35:56.689Z,22.57
2023-04-15T03:38:23.259Z,22.83
2023-04-15T03:40:49.844Z,28.03
2023-04-15T03:43:16.737Z,24.27
2023-04-15T03:45:43.342Z,27.47
2023-04-15T03:48:17.221Z,25.40
2023-04-15T03:50:44.891Z,27.03
2023-04-15T03:53:11.478Z,24.07
2023-04-15T03:55:38.180Z,26.00
2023-04-15T03:58:04.833Z,26.40
2023-04-15T04:00:31.688Z,26.17
2023-04-15T04:02:58.722Z,27.97
2023-04-15T04:05:26.162Z,24.87
2023-04-15T04:07:52.695Z,25.37
2023-04-15T04:10:19.316Z,25.43
2023-04-15T04:12:46.051Z,23.87
2023-04-15T04:15:12.676Z,24.83
2023-04-15T04:17:39.313Z,28.33
2023-04-15T04:20:06.902Z,25.57
2023-04-15T04:22:40.785Z,24.70
2023-04-15T04:25:08.996Z,24.53
2023-04-15T04:27:36.065Z,27.70
2023-04-15T04:30:02.591Z,30.13
2023-04-15T04:32:29.197Z,26.00
2023-04-15T04:34:56.141Z,24.63
2023-04-15T04:37:23.755Z,27.63
2023-04-15T04:39:50.428Z,32.00
2023-04-15T04:42:17.026Z,31.03
2023-04-15T04:44:43.687Z,30.70
2023-04-15T04:47:10.592Z,30.67
2023-04-15T04:49:37.147Z,32.23
2023-04-15T04:52:04.083Z,29.73
2023-04-15T04:54:31.648Z,36.47
2023-04-15T04:56:58.176Z,33.63
2023-04-15T04:59:25.126Z,37.10
2023-04-15T05:01:52.201Z,38.07
2023-04-15T05:04:18.919Z,36.70
2023-04-15T05:06:45.919Z,45.03
2023-04-15T05:09:12.545Z,40.07
2023-04-15T05:11:39.113Z,44.73
2023-04-15T05:14:05.628Z,44.00
2023-04-15T05:16:32.162Z,42.40
2023-04-15T05:18:58.734Z,44.87
2023-04-15T05:21:26.083Z,44.83
2023-04-15T05:23:52.925Z,44.13
2023-04-15T05:26:19.454Z,46.30
2023-04-15T05:28:46.364Z,45.83
2023-04-15T05:31:13.460Z,46.70
2023-04-15T05:33:40.717Z,46.67
2023-04-15T05:36:07.575Z,50.97
2023-04-15T05:38:34.222Z,47.03
2023-04-15T05:41:01.036Z,49.20
2023-04-15T05:43:27.666Z,47.50
2023-04-15T05:45:54.252Z,43.60
2023-04-15T05:48:21.076Z,45.93
2023-04-15T05:50:47.781Z,45.77
2023-04-15T05:53:14.378Z,47.43
2023-04-15T05:55:41.253Z,47.47
2023-04-15T05:58:07.883Z,46.43
2023-04-15T06:00:34.743Z,45.33
2023-04-15T06:03:01.441Z,42.27
2023-04-15T06:05:28.302Z,42.87
2023-04-15T06:07:55.002Z,44.30
2023-04-15T06:10:21.559Z,44.07
2023-04-15T06:12:48.154Z,43.37
2023-04-15T06:15:15.010Z,45.13
2023-04-15T06:17:41.938Z,47.00
2023-04-15T06:20:08.990Z,47.00
2023-04-15T06:22:37.395Z,42.27
2023-04-15T06:25:04.268Z,43.53
2023-04-15T06:27:31.020Z,48.93
2023-04-15T06:29:57.651Z,40.47
2023-04-15T06:32:24.199Z,48.13
2023-04-15T06:34:50.895Z,46.67
2023-04-15T06:37:17.453Z,46.40
2023-04-15T06:39:44.875Z,49.87
2023-04-15T06:42:12.268Z,63.97
2023-04-15T06:44:39.100Z,51.27
2023-04-15T06:47:06.222Z,55.80
2023-04-15T06:49:33.929Z,50.83
2023-04-15T06:52:00.833Z,54.03
2023-04-15T06:54:27.695Z,52.70
2023-04-15T06:56:54.512Z,54.20
2023-04-15T06:59:21.069Z,46.60
2023-04-15T07:01:47.896Z,46.47
2023-04-15T07:04:14.560Z,52.30
2023-04-15T07:06:42.045Z,51.87
2023-04-15T07:09:08.933Z,46.13
2023-04-15T07:11:35.488Z,46.00
2023-04-15T07:14:02.362Z,46.70
2023-04-15T07:16:30.035Z,46.73
2023-04-15T07:18:57.306Z,46.57
2023-04-15T07:21:24.922Z,48.17
2023-04-15T07:23:52.122Z,49.03
2023-04-15T07:26:18.801Z,49.73
2023-04-15T07:28:46.823Z,49.80
2023-04-15T07:31:14.010Z,48.70
2023-04-15T07:33:43.619Z,49.30
2023-04-15T07:36:10.735Z,46.90
2023-04-15T07:38:37.503Z,46.23
2023-04-15T07:41:05.051Z,49.33
2023-04-15T07:43:31.759Z,45.80
2023-04-15T07:45:58.325Z,52.10
2023-04-15T07:48:24.957Z,46.73
2023-04-15T07:50:51.813Z,48.03
2023-04-15T07:53:18.413Z,57.53
2023-04-15T07:55:44.967Z,74.90
2023-04-15T07:58:11.777Z,46.33
2023-04-15T08:00:38.694Z,55.00
2023-04-15T08:03:05.495Z,48.77
2023-04-15T08:05:32.279Z,51.27
2023-04-15T08:07:59.091Z,45.03
2023-04-15T08:10:25.816Z,50.93
2023-04-15T08:12:54.442Z,52.60
2023-04-15T08:15:21.174Z,49.17
2023-04-15T08:17:48.077Z,46.07
2023-04-15T08:20:14.776Z,48.97
2023-04-15T08:22:42.143Z,52.00
2023-04-15T08:25:09.753Z,48.97
2023-04-15T08:27:36.601Z,52.47
2023-04-15T08:30:05.324Z,46.07
2023-04-15T08:32:32.215Z,49.57
2023-04-15T08:34:58.891Z,49.60
2023-04-15T08:37:25.469Z,46.73
2023-04-15T08:39:52.363Z,51.97
2023-04-15T08:42:27.880Z,49.17
2023-04-15T08:44:55.785Z,52.53
2023-04-15T08:47:27.444Z,47.87
2023-04-15T08:49:55.666Z,45.63
2023-04-15T08:52:23.102Z,46.47
2023-04-15T08:54:49.835Z,48.93
2023-04-15T08:57:16.618Z,45.60
2023-04-15T08:59:44.019Z,48.67
2023-04-15T09:02:12.317Z,51.00
2023-04-15T09:04:38.897Z,52.53
2023-04-15T09:07:06.313Z,52.50
2023-04-15T09:09:33.227Z,52.00
2023-04-15T09:12:02.053Z,48.83
2023-04-15T09:14:32.325Z,53.20
2023-04-15T09:17:04.057Z,52.00
2023-04-15T09:19:31.696Z,48.80
2023-04-15T09:21:59.710Z,58.37
2023-04-15T09:24:37.585Z,60.70
2023-04-15T09:27:04.555Z,48.03
2023-04-15T09:29:31.750Z,47.87
2023-04-15T09:32:10.937Z,47.73
2023-04-15T09:34:38.159Z,46.93
2023-04-15T09:37:04.844Z,48.53
2023-04-15T09:39:48.846Z,46.50
2023-04-15T09:42:17.703Z,41.13
2023-04-15T09:44:44.553Z,41.67
2023-04-15T09:47:27.887Z,41.80
2023-04-15T09:50:01.985Z,38.77
2023-04-15T09:52:29.902Z,49.87
2023-04-15T09:55:00.413Z,46.87
2023-04-15T09:57:35.886Z,41.27
2023-04-15T10:00:09.051Z,37.63
2023-04-15T10:02:36.889Z,33.57
2023-04-15T10:05:04.095Z,33.20
2023-04-15T10:07:31.038Z,32.00
2023-04-15T10:10:00.006Z,35.70
2023-04-15T10:12:27.990Z,42.10
2023-04-15T10:15:04.961Z,32.67
2023-04-15T10:17:35.531Z,42.20
2023-04-15T10:20:04.978Z,30.97
2023-04-15T10:22:32.828Z,28.40
2023-04-15T10:25:01.061Z,29.57
2023-04-15T10:27:28.114Z,30.10
2023-04-15T10:29:55.019Z,29.03
2023-04-15T10:32:22.785Z,28.60
2023-04-15T10:34:52.392Z,24.60
2023-04-15T10:37:22.123Z,23.30
2023-04-15T10:39:48.843Z,21.40
2023-04-15T10:42:17.636Z,22.40
2023-04-15T10:44:54.525Z,20.77
2023-04-15T10:47:22.282Z,20.00
2023-04-15T10:49:58.239Z,18.37
2023-04-15T10:52:27.768Z,19.60
2023-04-15T10:55:14.632Z,19.83
2023-04-15T10:57:42.508Z,19.70
2023-04-15T11:00:09.281Z,17.70
2023-04-15T11:02:43.574Z,18.38
2023-04-15T11:05:11.886Z,14.85
2023-04-15T11:07:44.449Z,14.18
2023-04-15T11:10:14.010Z,12.95
2023-04-15T11:12:41.456Z,13.13
2023-04-15T11:15:39.034Z,14.07
2023-04-15T11:18:19.809Z,14.77
2023-04-15T11:21:00.197Z,17.07
2023-04-15T11:23:36.126Z,16.00
2023-04-15T11:26:07.033Z,14.00
2023-04-15T11:28:33.681Z,15.70
2023-04-15T11:31:07.368Z,17.07
2023-04-15T11:33:33.987Z,13.23
2023-04-15T11:36:01.601Z,19.13
2023-04-15T11:38:28.261Z,13.93
2023-04-15T11:40:55.027Z,16.33
2023-04-15T11:43:23.364Z,15.63
2023-04-15T11:45:57.511Z,16.27
2023-04-15T11:48:27.151Z,19.80
2023-04-15T11:50:59.310Z,17.50
2023-04-15T11:53:37.512Z,15.60
2023-04-15T11:56:04.298Z,17.27
2023-04-15T11:58:31.822Z,15.70
2023-04-15T12:01:00.314Z,31.10
2023-04-15T12:03:32.206Z,20.10
2023-04-15T12:06:15.164Z,10.73
2023-04-15T12:09:15.484Z,13.77
2023-04-15T12:11:47.583Z,16.23
2023-04-15T12:14:31.386Z,12.20
2023-04-15T12:17:05.556Z,14.97
2023-04-15T12:19:36.924Z,20.23
2023-04-15T12:22:11.991Z,14.20
2023-04-15T12:24:39.649Z,21.83
2023-04-15T12:27:11.928Z,15.00
2023-04-15T12:29:40.995Z,13.77
2023-04-15T12:32:12.417Z,13.77
2023-04-15T12:34:40.529Z,15.73
2023-04-15T12:37:11.850Z,15.27
2023-04-15T12:39:41.315Z,13.97
2023-04-15T12:42:09.105Z,13.87
2023-04-15T12:44:37.170Z,14.67
2023-04-15T12:47:04.236Z,13.67
2023-04-15T12:49:32.773Z,17.43
2023-04-15T12:52:00.972Z,14.33
2023-04-15T12:54:28.710Z,15.13
2023-04-15T12:56:55.999Z,18.50
2023-04-15T12:59:24.288Z,17.70
2023-04-15T13:01:52.530Z,14.27
2023-04-15T13:04:20.901Z,15.07
2023-04-15T13:06:47.924Z,13.23
2023-04-15T13:09:15.012Z,13.90
2023-04-15T13:11:41.993Z,14.03
2023-04-15T13:14:09.836Z,14.53
2023-04-15T13:16:36.577Z,14.23
2023-04-15T13:19:04.154Z,13.60
2023-04-15T13:21:36.108Z,12.20
2023-04-15T13:24:04.017Z,14.83
2023-04-15T13:26:31.941Z,12.97
2023-04-15T13:28:58.795Z,12.30
2023-04-15T13:31:25.683Z,12.30
2023-04-15T13:33:52.389Z,12.73
2023-04-15T13:36:19.469Z,11.53
2023-04-15T13:38:46.199Z,13.47
2023-04-15T13:41:13.482Z,13.03
2023-04-15T13:43:40.907Z,14.80
2023-04-15T13:46:07.514Z,12.90
2023-04-15T13:48:34.098Z,11.37
2023-04-15T13:51:00.904Z,9.73
2023-04-15T13:53:37.759Z,13.13
2023-04-15T13:56:10.058Z,11.07
2023-04-15T13:58:37.775Z,7.83
2023-04-15T14:01:07.090Z,8.00
2023-04-15T14:03:35.480Z,8.60
2023-04-15T14:06:02.389Z,10.68
2023-04-15T14:08:30.337Z,12.43
2023-04-15T14:10:57.906Z,8.68
2023-04-15T14:13:24.792Z,9.40
2023-04-15T14:15:51.461Z,7.95
2023-04-15T14:18:18.051Z,8.68
2023-04-15T14:20:49.907Z,10.02
2023-04-15T14:23:16.458Z,12.43
2023-04-15T14:25:43.610Z,11.02
2023-04-15T14:28:11.214Z,10.73
2023-04-15T14:30:37.897Z,9.18
2023-04-15T14:33:04.562Z,7.03
2023-04-15T14:35:31.549Z,7.75
2023-04-15T14:37:58.243Z,7.47
2023-04-15T14:40:25.019Z,6.20
2023-04-15T14:42:51.676Z,7.80
2023-04-15T14:45:18.549Z,8.30
2023-04-15T14:47:45.270Z,7.00
2023-04-15T14:50:12.183Z,6.85
2023-04-15T14:52:39.070Z,5.82
2023-04-15T14:55:07.399Z,9.93
2023-04-15T14:57:34.018Z,7.68
2023-04-15T15:00:00.776Z,19.63
2023-04-15T15:02:38.481Z,7.30
2023-04-15T15:05:07.215Z,8.57
2023-04-15T15:07:34.143Z,7.57
2023-04-15T15:10:00.996Z,6.55
2023-04-15T15:12:27.603Z,7.93
2023-04-15T15:14:55.961Z,9.27
2023-04-15T15:17:22.656Z,10.18
2023-04-15T15:19:49.504Z,8.93
2023-04-15T15:22:16.116Z,9.98
2023-04-15T15:24:42.715Z,8.68
2023-04-15T15:27:09.755Z,10.00
2023-04-15T15:29:38.472Z,7.93
2023-04-15T15:32:05.701Z,10.40
2023-04-15T15:34:32.329Z,9.18
2023-04-15T15:37:00.974Z,10.13
2023-04-15T15:39:27.905Z,9.30
2023-04-15T15:41:54.609Z,10.38
2023-04-15T15:44:21.257Z,9.70
2023-04-15T15:46:47.982Z,10.00
2023-04-15T15:49:14.739Z,11.67
2023-04-15T15:51:41.412Z,13.27
2023-04-15T15:54:08.003Z,12.67
2023-04-15T15:56:35.250Z,11.40
2023-04-15T15:59:01.926Z,18.00
2023-04-15T16:01:28.685Z,12.60
2023-04-15T16:03:55.544Z,10.60
2023-04-15T16:06:22.216Z,11.80
2023-04-15T16:08:48.846Z,13.30
2023-04-15T16:11:15.626Z,13.80
2023-04-15T16:13:42.245Z,15.97
2023-04-15T16:16:08.894Z,13.40
2023-04-15T16:18:35.630Z,16.27
2023-04-15T16:21:02.376Z,16.87
2023-04-15T16:23:29.121Z,17.67
2023-04-15T16:25:56.035Z,15.37
2023-04-15T16:28:26.764Z,16.03
2023-04-15T16:30:54.522Z,17.00
2023-04-15T16:33:21.317Z,16.57
2023-04-15T16:35:47.992Z,19.83
2023-04-15T16:38:14.628Z,17.70
2023-04-15T16:40:41.479Z,17.40
2023-04-15T16:43:11.294Z,20.43
2023-04-15T16:45:38.132Z,20.00
2023-04-15T16:48:05.017Z,18.20
2023-04-15T16:50:31.877Z,20.20
2023-04-15T16:52:58.455Z,18.73
2023-04-15T16:55:25.121Z,18.87
2023-04-15T16:58:02.103Z,20.43
2023-04-15T17:00:31.354Z,23.37
2023-04-15T17:02:58.875Z,20.37
2023-04-15T17:05:27.776Z,18.23
2023-04-15T17:07:54.958Z,20.03
2023-04-15T17:10:22.172Z,20.00
2023-04-15T17:12:52.431Z,21.77
2023-04-15T17:15:20.061Z,25.07
2023-04-15T17:17:46.871Z,20.67
2023-04-15T17:20:13.599Z,22.00
2023-04-15T17:22:40.446Z,20.20
2023-04-15T17:25:09.182Z,19.97
2023-04-15T17:27:35.871Z,27.13
2023-04-15T17:30:02.542Z,21.03
2023-04-15T17:32:32.110Z,25.17
2023-04-15T17:34:58.782Z,21.97
2023-04-15T17:37:25.804Z,22.17
2023-04-15T17:39:52.696Z,21.20
2023-04-15T17:42:19.445Z,21.13
2023-04-15T17:44:46.162Z,34.13
2023-04-15T17:47:12.861Z,25.60
2023-04-15T17:49:39.440Z,24.90
2023-04-15T17:52:06.466Z,22.23
2023-04-15T17:54:33.120Z,21.90
2023-04-15T17:57:00.389Z,24.07
2023-04-15T17:59:27.732Z,22.37
2023-04-15T18:01:54.385Z,30.47
2023-04-15T18:04:22.097Z,20.97
2023-04-15T18:06:51.876Z,19.70
2023-04-15T18:09:18.581Z,25.50
2023-04-15T18:11:47.457Z,25.60
2023-04-15T18:14:17.724Z,24.87
2023-04-15T18:16:53.545Z,26.50
2023-04-15T18:19:21.849Z,24.40
2023-04-15T18:21:48.393Z,23.30
2023-04-15T18:24:16.212Z,29.77
2023-04-15T18:26:43.263Z,25.07
2023-04-15T18:29:10.858Z,26.70
2023-04-15T18:31:37.433Z,25.17
2023-04-15T18:34:06.602Z,27.80
2023-04-15T18:36:33.449Z,25.23
2023-04-15T18:39:00.120Z,24.37
2023-04-15T18:41:26.737Z,24.23
2023-04-15T18:43:54.792Z,23.83
2023-04-15T18:46:21.470Z,25.40
2023-04-15T18:48:48.154Z,23.47
2023-04-15T18:51:15.541Z,27.43
2023-04-15T18:53:42.195Z,25.27
2023-04-15T18:56:08.769Z,24.40
2023-04-15T18:59:10.157Z,27.30
2023-04-15T19:01:22.195Z,29.63
2023-04-15T19:03:48.836Z,26.30
2023-04-15T19:06:15.574Z,29.43
2023-04-15T19:08:42.487Z,29.63
2023-04-15T19:11:09.085Z,24.40
2023-04-15T19:13:35.753Z,28.13
2023-04-15T19:16:02.370Z,31.67
2023-04-15T19:18:29.013Z,28.23
2023-04-15T19:20:56.797Z,24.47
2023-04-15T19:23:24.005Z,24.50
2023-04-15T19:25:50.819Z,26.97
2023-04-15T19:28:17.386Z,26.53
2023-04-15T19:30:44.071Z,27.90
2023-04-15T19:33:10.678Z,25.63
2023-04-15T19:35:38.442Z,33.80
2023-04-15T19:38:05.379Z,46.17
2023-04-15T19:40:32.025Z,30.13
2023-04-15T19:42:58.644Z,27.63
2023-04-15T19:45:25.405Z,31.00
2023-04-15T19:47:53.581Z,26.73
2023-04-15T19:50:24.816Z,23.70
2023-04-15T19:52:51.495Z,29.60
2023-04-15T19:55:18.349Z,25.20
2023-04-15T19:57:44.936Z,22.90
2023-04-15T20:00:12.091Z,25.93
2023-04-15T20:02:38.866Z,22.70
2023-04-15T20:05:10.012Z,25.23
2023-04-15T20:07:36.767Z,26.50
2023-04-15T20:10:12.088Z,26.53
2023-04-15T20:12:51.625Z,26.83
2023-04-15T20:15:20.256Z,26.57
2023-04-15T20:17:46.890Z,23.93
2023-04-15T20:20:13.569Z,25.60
2023-04-15T20:22:40.325Z,27.43
2023-04-15T20:25:07.508Z,25.97
2023-04-15T20:27:34.092Z,28.10
2023-04-15T20:30:00.712Z,22.53
2023-04-15T20:32:28.489Z,23.13
2023-04-15T20:34:55.303Z,27.53
2023-04-15T20:37:22.539Z,27.77
2023-04-15T20:39:49.439Z,26.73
2023-04-15T20:42:16.391Z,24.70
2023-04-15T20:44:42.976Z,24.37
2023-04-15T20:47:09.652Z,22.90
2023-04-15T20:49:38.020Z,23.73
2023-04-15T20:52:06.629Z,25.93
2023-04-15T20:54:33.647Z,26.20
2023-04-15T20:57:01.664Z,25.37
2023-04-15T20:59:28.382Z,28.33
2023-04-15T21:01:57.122Z,25.83
2023-04-15T21:04:25.197Z,26.03
2023-04-15T21:06:55.075Z,26.57
2023-04-15T21:09:21.929Z,27.70
2023-04-15T21:14:19.044Z,26.33
2023-04-15T21:16:45.839Z,27.77
2023-04-15T21:19:12.659Z,27.77
2023-04-15T21:21:39.384Z,26.00
2023-04-15T21:24:07.877Z,29.53
2023-04-15T21:26:36.310Z,25.83
2023-04-15T21:29:03.582Z,26.10
2023-04-15T21:31:30.661Z,25.50
2023-04-15T21:33:57.343Z,27.23
2023-04-15T21:36:23.954Z,26.87
2023-04-15T21:38:50.586Z,24.73
2023-04-15T21:41:17.191Z,33.03
2023-04-15T21:43:43.787Z,44.87
2023-04-15T21:46:23.033Z,27.77
2023-04-15T21:48:53.591Z,27.60
2023-04-15T21:51:21.638Z,27.67
2023-04-15T21:53:48.502Z,26.03
2023-04-15T21:56:15.099Z,28.40
2023-04-15T21:58:41.832Z,26.80
2023-04-15T22:01:08.520Z,26.47
2023-04-15T22:03:35.692Z,29.13
2023-04-15T22:06:03.222Z,30.07
2023-04-15T22:08:33.632Z,26.33
2023-04-15T22:11:05.188Z,29.47
2023-04-15T22:13:31.742Z,25.77
2023-04-15T22:15:58.380Z,27.83
2023-04-15T22:18:25.009Z,26.30
2023-04-15T22:20:51.768Z,29.70
2023-04-15T22:23:20.543Z,26.13
2023-04-15T22:25:48.792Z,30.30
2023-04-15T22:28:15.459Z,31.13
2023-04-15T22:30:42.632Z,27.47
2023-04-15T22:33:09.997Z,30.43
2023-04-15T22:35:37.545Z,31.70
2023-04-15T22:38:05.220Z,29.77
2023-04-15T22:40:31.811Z,29.80
2023-04-15T22:42:58.575Z,26.80
2023-04-15T22:45:25.182Z,25.87
2023-04-15T22:47:51.762Z,29.47
2023-04-15T22:50:18.581Z,27.57
2023-04-15T22:52:48.410Z,25.63
2023-04-15T22:55:15.592Z,32.67
2023-04-15T22:57:42.117Z,30.10
2023-04-15T23:00:09.499Z,27.90
2023-04-15T23:02:36.196Z,33.50
2023-04-15T23:05:12.069Z,33.60
2023-04-15T23:07:40.301Z,31.43
2023-04-15T23:10:08.168Z,33.13
2023-04-15T23:12:34.801Z,27.87
2023-04-15T23:15:01.497Z,29.30
2023-04-15T23:17:28.159Z,27.40
2023-04-15T23:19:54.830Z,30.63
2023-04-15T23:22:21.418Z,26.37
2023-04-15T23:24:47.987Z,28.17
2023-04-15T23:27:14.614Z,33.47
2023-04-15T23:29:41.214Z,27.63
2023-04-15T23:32:07.856Z,27.80
2023-04-15T23:34:34.413Z,28.70
2023-04-15T23:37:01.134Z,30.57
2023-04-15T23:39:27.791Z,31.77
2023-04-15T23:41:54.407Z,32.27
2023-04-15T23:44:20.989Z,30.37
2023-04-15T23:46:47.593Z,31.07
2023-04-15T23:49:14.379Z,29.43
2023-04-15T23:51:41.414Z,28.63
2023-04-15T23:54:07.965Z,32.83
2023-04-15T23:56:34.531Z,31.00
2023-04-15T23:59:01.154Z,28.33
